createdAt,value
2023-04-01T00:00:26.902Z,70.01
2023-04-01T00:01:48.852Z,69.94
2023-04-01T00:03:10.161Z,70.15
2023-04-01T00:04:32.345Z,70.19
2023-04-01T00:05:53.618Z,69.91
2023-04-01T00:07:18.049Z,70.04
2023-04-01T00:08:39.456Z,70.33
2023-04-01T00:10:02.078Z,70.06
2023-04-01T00:11:26.192Z,69.95
2023-04-01T00:12:55.608Z,70.00
2023-04-01T00:14:24.376Z,70.00
2023-04-01T00:15:49.990Z,69.77
2023-04-01T00:17:14.150Z,69.91
2023-04-01T00:18:36.823Z,69.80
2023-04-01T00:19:58.485Z,69.67
2023-04-01T00:21:21.684Z,69.38
2023-04-01T00:22:43.379Z,69.71
2023-04-01T00:24:06.091Z,69.29
2023-04-01T00:25:27.492Z,69.19
2023-04-01T00:26:52.075Z,69.44
2023-04-01T00:28:14.982Z,69.26
2023-04-01T00:29:39.509Z,69.10
2023-04-01T00:31:06.277Z,69.02
2023-04-01T00:32:28.834Z,69.16
2023-04-01T00:33:52.885Z,69.10
2023-04-01T00:35:14.400Z,69.18
2023-04-01T00:36:36.945Z,69.22
2023-04-01T00:37:58.778Z,69.08
2023-04-01T00:39:22.431Z,69.21
2023-04-01T00:40:46.807Z,69.08
2023-04-01T00:42:15.090Z,69.39
2023-04-01T00:43:41.884Z,69.10
2023-04-01T00:45:31.406Z,69.17
2023-04-01T00:46:57.430Z,68.96
2023-04-01T00:48:23.891Z,69.05
2023-04-01T00:49:58.297Z,68.91
2023-04-01T00:51:24.833Z,69.44
2023-04-01T00:52:47.561Z,69.12
2023-04-01T00:54:12.203Z,69.17
2023-04-01T00:55:37.674Z,69.14
2023-04-01T00:57:04.440Z,68.95
2023-04-01T00:58:33.521Z,69.04
2023-04-01T00:59:59.402Z,69.02
2023-04-01T01:01:24.277Z,68.76
2023-04-01T01:02:47.550Z,68.87
2023-04-01T01:04:26.116Z,68.94
2023-04-01T01:06:05.043Z,68.80
2023-04-01T01:07:35.917Z,68.94
2023-04-01T01:09:28.782Z,69.21
2023-04-01T01:10:51.506Z,69.04
2023-04-01T01:12:16.843Z,68.96
2023-04-01T01:13:49.792Z,69.33
2023-04-01T01:15:22.644Z,69.40
2023-04-01T01:16:48.301Z,69.09
2023-04-01T01:18:20.648Z,68.68
2023-04-01T01:19:52.661Z,69.15
2023-04-01T01:21:53.221Z,69.01
2023-04-01T01:23:51.254Z,69.15
2023-04-01T01:25:28.775Z,69.10
2023-04-01T01:26:58.632Z,69.24
2023-04-01T01:28:34.458Z,69.36
2023-04-01T01:30:27.700Z,69.01
2023-04-01T01:31:58.051Z,69.11
2023-04-01T01:33:48.126Z,69.32
2023-04-01T01:35:22.497Z,69.42
2023-04-01T01:36:46.805Z,69.43
2023-04-01T01:38:11.435Z,69.29
2023-04-01T01:39:37.209Z,69.59
2023-04-01T01:41:03.741Z,69.24
2023-04-01T01:42:27.617Z,69.31
2023-04-01T01:43:54.078Z,69.48
2023-04-01T01:45:19.803Z,69.57
2023-04-01T01:46:45.020Z,69.59
2023-04-01T01:48:09.400Z,69.60
2023-04-01T01:49:34.649Z,69.62
2023-04-01T01:50:58.251Z,69.67
2023-04-01T01:52:19.522Z,69.69
2023-04-01T01:53:42.087Z,69.66
2023-04-01T01:55:04.985Z,69.69
2023-04-01T01:56:41.639Z,69.70
2023-04-01T01:58:11.469Z,69.73
2023-04-01T01:59:37.442Z,69.64
2023-04-01T02:01:02.388Z,69.36
2023-04-01T02:02:28.206Z,69.81
2023-04-01T02:03:51.136Z,69.37
2023-04-01T02:05:19.679Z,69.39
2023-04-01T02:06:50.793Z,69.47
2023-04-01T02:08:15.900Z,69.34
2023-04-01T02:09:37.805Z,69.61
2023-04-01T02:11:03.444Z,69.75
2023-04-01T02:12:32.411Z,69.84
2023-04-01T02:13:58.138Z,70.00
2023-04-01T02:15:22.950Z,69.91
2023-04-01T02:16:52.225Z,69.76
2023-04-01T02:18:15.758Z,69.88
2023-04-01T02:19:41.821Z,69.71
2023-04-01T02:21:07.227Z,69.83
2023-04-01T02:22:33.018Z,69.74
2023-04-01T02:23:57.031Z,69.79
2023-04-01T02:25:21.833Z,69.43
2023-04-01T02:26:45.314Z,69.47
2023-04-01T02:28:08.883Z,69.32
2023-04-01T02:29:32.241Z,69.31
2023-04-01T02:30:54.366Z,69.46
2023-04-01T02:32:18.963Z,69.45
2023-04-01T02:33:43.600Z,69.60
2023-04-01T02:35:07.434Z,69.41
2023-04-01T02:36:29.571Z,69.24
2023-04-01T02:37:54.930Z,69.35
2023-04-01T02:39:17.608Z,69.42
2023-04-01T02:40:50.684Z,69.51
2023-04-01T02:42:12.882Z,69.38
2023-04-01T02:43:34.072Z,69.45
2023-04-01T02:44:57.320Z,69.47
2023-04-01T02:46:19.556Z,69.43
2023-04-01T02:47:40.903Z,69.42
2023-04-01T02:49:03.326Z,69.37
2023-04-01T02:50:26.139Z,69.16
2023-04-01T02:51:48.608Z,69.23
2023-04-01T02:53:11.621Z,69.32
2023-04-01T02:54:33.557Z,69.32
2023-04-01T02:55:54.845Z,69.31
2023-04-01T02:57:17.228Z,69.46
2023-04-01T02:58:40.950Z,69.33
2023-04-01T03:00:03.106Z,69.27
2023-04-01T03:01:24.622Z,69.26
2023-04-01T03:02:46.783Z,69.09
2023-04-01T03:04:09.181Z,69.21
2023-04-01T03:05:30.485Z,69.38
2023-04-01T03:06:53.105Z,69.58
2023-04-01T03:08:16.800Z,69.62
2023-04-01T03:09:37.943Z,69.41
2023-04-01T03:11:00.672Z,69.48
2023-04-01T03:12:22.902Z,69.42
2023-04-01T03:13:45.784Z,69.24
2023-04-01T03:15:10.786Z,69.43
2023-04-01T03:16:35.067Z,69.18
2023-04-01T03:17:56.325Z,69.13
2023-04-01T03:19:18.731Z,69.28
2023-04-01T03:20:40.131Z,69.16
2023-04-01T03:22:02.504Z,69.06
2023-04-01T03:23:26.521Z,69.07
2023-04-01T03:24:49.365Z,69.02
2023-04-01T03:26:11.035Z,69.20
2023-04-01T03:27:33.412Z,68.97
2023-04-01T03:28:56.209Z,69.09
2023-04-01T03:30:18.509Z,69.08
2023-04-01T03:31:45.976Z,69.33
2023-04-01T03:33:08.806Z,69.32
2023-04-01T03:34:29.943Z,69.16
2023-04-01T03:35:53.381Z,69.13
2023-04-01T03:37:16.025Z,69.50
2023-04-01T03:38:39.961Z,69.88
2023-04-01T03:40:01.920Z,69.77
2023-04-01T03:41:23.125Z,69.76
2023-04-01T03:42:45.750Z,69.77
2023-04-01T03:44:07.231Z,69.97
2023-04-01T03:45:29.685Z,69.90
2023-04-01T03:46:50.685Z,70.14
2023-04-01T03:48:13.614Z,70.23
2023-04-01T03:49:34.922Z,70.55
2023-04-01T03:50:56.875Z,70.60
2023-04-01T03:52:18.834Z,70.51
2023-04-01T03:53:42.652Z,70.83
2023-04-01T03:55:07.888Z,71.32
2023-04-01T03:56:29.667Z,71.25
2023-04-01T03:57:52.094Z,71.51
2023-04-01T03:59:16.589Z,71.52
2023-04-01T04:00:38.800Z,72.07
2023-04-01T04:02:01.587Z,72.11
2023-04-01T04:03:24.440Z,72.35
2023-04-01T04:04:47.610Z,72.28
2023-04-01T04:06:13.018Z,72.35
2023-04-01T04:07:36.785Z,72.74
2023-04-01T04:09:01.954Z,73.00
2023-04-01T04:10:27.959Z,73.20
2023-04-01T04:11:49.277Z,73.28
2023-04-01T04:13:11.778Z,73.37
2023-04-01T04:14:40.887Z,73.74
2023-04-01T04:16:02.113Z,74.14
2023-04-01T04:17:24.940Z,74.33
2023-04-01T04:18:47.592Z,74.56
2023-04-01T04:20:09.668Z,74.47
2023-04-01T04:21:32.238Z,74.46
2023-04-01T04:22:55.330Z,74.37
2023-04-01T04:24:18.793Z,74.87
2023-04-01T04:26:02.306Z,75.16
2023-04-01T04:27:25.025Z,75.04
2023-04-01T04:28:58.552Z,75.40
2023-04-01T04:30:20.560Z,75.79
2023-04-01T04:31:44.385Z,75.75
2023-04-01T04:33:06.564Z,75.85
2023-04-01T04:34:29.330Z,75.76
2023-04-01T04:35:51.039Z,76.06
2023-04-01T04:37:13.426Z,76.42
2023-04-01T04:38:35.757Z,76.33
2023-04-01T04:40:01.807Z,76.60
2023-04-01T04:41:24.452Z,76.76
2023-04-01T04:42:47.130Z,76.70
2023-04-01T04:44:11.913Z,76.50
2023-04-01T04:45:33.519Z,76.76
2023-04-01T04:46:58.384Z,76.93
2023-04-01T04:48:21.436Z,77.13
2023-04-01T04:49:44.812Z,77.31
2023-04-01T04:51:06.077Z,77.62
2023-04-01T04:52:29.701Z,77.62
2023-04-01T04:53:53.245Z,77.64
2023-04-01T04:55:24.193Z,78.18
2023-04-01T04:57:01.980Z,78.13
2023-04-01T04:58:28.285Z,78.32
2023-04-01T04:59:50.931Z,78.36
2023-04-01T05:01:21.595Z,78.54
2023-04-01T05:02:42.745Z,78.77
2023-04-01T05:04:05.011Z,78.57
2023-04-01T05:05:26.205Z,78.85
2023-04-01T05:06:48.776Z,78.96
2023-04-01T05:08:17.534Z,79.03
2023-04-01T05:09:40.101Z,78.85
2023-04-01T05:11:04.897Z,78.99
2023-04-01T05:12:28.664Z,79.45
2023-04-01T05:13:54.143Z,79.25
2023-04-01T05:15:16.481Z,79.59
2023-04-01T05:16:38.803Z,79.56
2023-04-01T05:18:00.762Z,79.49
2023-04-01T05:19:22.731Z,79.50
2023-04-01T05:20:48.432Z,79.53
2023-04-01T05:22:10.860Z,79.55
2023-04-01T05:23:33.392Z,79.67
2023-04-01T05:24:56.326Z,79.89
2023-04-01T05:26:20.367Z,80.17
2023-04-01T05:27:42.709Z,80.15
2023-04-01T05:29:05.425Z,80.38
2023-04-01T05:30:28.384Z,79.97
2023-04-01T05:31:59.466Z,79.95
2023-04-01T05:33:21.184Z,80.06
2023-04-01T05:34:42.953Z,79.83
2023-04-01T05:36:12.959Z,79.88
2023-04-01T05:37:35.598Z,80.07
2023-04-01T05:38:59.284Z,80.10
2023-04-01T05:40:23.239Z,80.30
2023-04-01T05:41:47.190Z,80.61
2023-04-01T05:43:09.695Z,80.45
2023-04-01T05:44:31.188Z,80.37
2023-04-01T05:45:59.522Z,80.24
2023-04-01T05:47:41.980Z,80.27
2023-04-01T05:49:04.406Z,80.32
2023-04-01T05:50:25.728Z,80.39
2023-04-01T05:51:52.368Z,80.56
2023-04-01T05:53:13.856Z,80.35
2023-04-01T05:54:38.810Z,80.64
2023-04-01T05:56:05.273Z,80.41
2023-04-01T05:57:34.722Z,80.83
2023-04-01T05:58:57.223Z,80.96
2023-04-01T06:00:21.136Z,80.87
2023-04-01T06:01:43.757Z,80.94
2023-04-01T06:03:05.471Z,80.90
2023-04-01T06:04:31.894Z,80.95
2023-04-01T06:05:55.014Z,80.76
2023-04-01T06:07:19.018Z,80.72
2023-04-01T06:08:40.129Z,80.54
2023-04-01T06:10:03.553Z,80.84
2023-04-01T06:11:36.457Z,80.85
2023-04-01T06:13:07.318Z,80.53
2023-04-01T06:14:39.174Z,80.62
2023-04-01T06:16:10.042Z,80.79
2023-04-01T06:17:45.568Z,80.83
2023-04-01T06:19:22.788Z,80.62
2023-04-01T06:20:51.598Z,80.53
2023-04-01T06:22:49.979Z,80.65
2023-04-01T06:24:30.908Z,80.66
2023-04-01T06:26:08.000Z,80.52
2023-04-01T06:27:48.892Z,80.53
2023-04-01T06:29:29.465Z,80.73
2023-04-01T06:31:00.289Z,80.62
2023-04-01T06:33:05.765Z,80.63
2023-04-01T06:35:01.787Z,80.59
2023-04-01T06:36:59.853Z,80.34
2023-04-01T06:38:46.423Z,80.59
2023-04-01T06:40:40.297Z,80.80
2023-04-01T06:42:33.002Z,80.81
2023-04-01T06:44:17.278Z,80.86
2023-04-01T06:46:08.799Z,80.73
2023-04-01T06:48:04.681Z,80.46
2023-04-01T06:50:00.640Z,80.60
2023-04-01T06:51:35.641Z,80.56
2023-04-01T06:53:25.118Z,80.28
2023-04-01T06:55:36.963Z,80.78
2023-04-01T06:57:25.685Z,80.55
2023-04-01T06:59:12.778Z,80.67
2023-04-01T07:00:45.943Z,80.75
2023-04-01T07:02:25.660Z,80.63
2023-04-01T07:03:55.951Z,80.57
2023-04-01T07:05:19.168Z,80.49
2023-04-01T07:06:56.629Z,80.53
2023-04-01T07:08:26.544Z,80.51
2023-04-01T07:09:53.967Z,80.43
2023-04-01T07:11:31.543Z,80.36
2023-04-01T07:13:30.355Z,80.27
2023-04-01T07:15:08.483Z,80.43
2023-04-01T07:16:37.835Z,80.09
2023-04-01T07:18:10.084Z,80.01
2023-04-01T07:19:43.525Z,79.95
2023-04-01T07:21:36.072Z,79.88
2023-04-01T07:23:13.937Z,79.89
2023-04-01T07:25:15.729Z,79.47
2023-04-01T07:26:41.686Z,79.36
2023-04-01T07:28:07.480Z,79.59
2023-04-01T07:29:35.982Z,79.16
2023-04-01T07:31:18.620Z,79.04
2023-04-01T07:33:07.448Z,78.80
2023-04-01T07:34:46.301Z,78.82
2023-04-01T07:36:27.951Z,78.95
2023-04-01T07:38:09.289Z,78.80
2023-04-01T07:39:49.355Z,78.82
2023-04-01T07:41:28.203Z,78.58
2023-04-01T07:43:14.382Z,78.85
2023-04-01T07:45:29.039Z,78.85
2023-04-01T07:47:31.684Z,78.76
2023-04-01T07:49:01.025Z,78.81
2023-04-01T07:51:07.637Z,78.57
2023-04-01T07:52:49.790Z,78.42
2023-04-01T07:54:33.951Z,78.64
2023-04-01T07:57:56.714Z,78.60
2023-04-01T07:59:25.435Z,78.23
2023-04-01T08:01:04.496Z,78.21
2023-04-01T08:02:55.089Z,78.56
2023-04-01T08:04:44.677Z,77.99
2023-04-01T08:06:17.165Z,78.07
2023-04-01T08:08:14.146Z,77.78
2023-04-01T08:10:02.116Z,77.77
2023-04-01T08:12:04.166Z,77.48
2023-04-01T08:13:54.899Z,77.32
2023-04-01T08:16:01.067Z,77.01
2023-04-01T08:17:52.563Z,76.73
2023-04-01T08:19:28.899Z,76.75
2023-04-01T08:21:12.258Z,76.62
2023-04-01T08:22:44.806Z,76.65
2023-04-01T08:24:44.384Z,76.45
2023-04-01T08:26:16.657Z,76.32
2023-04-01T08:27:44.092Z,76.00
2023-04-01T08:29:14.709Z,75.65
2023-04-01T08:30:45.847Z,75.82
2023-04-01T08:32:15.633Z,75.46
2023-04-01T08:33:39.450Z,75.25
2023-04-01T08:35:27.307Z,74.75
2023-04-01T08:36:58.576Z,74.34
2023-04-01T08:38:31.632Z,73.95
2023-04-01T08:40:10.223Z,73.64
2023-04-01T08:42:05.385Z,73.36
2023-04-01T08:43:57.560Z,72.95
2023-04-01T08:46:01.264Z,73.06
2023-04-01T08:47:40.679Z,72.68
2023-04-01T08:49:17.062Z,72.62
2023-04-01T08:50:58.795Z,72.88
2023-04-01T08:52:37.692Z,72.80
2023-04-01T08:54:30.709Z,72.27
2023-04-01T08:56:07.967Z,72.46
2023-04-01T08:57:49.577Z,72.46
2023-04-01T09:00:02.438Z,73.03
2023-04-01T09:02:28.308Z,72.70
2023-04-01T09:04:25.417Z,72.33
2023-04-01T09:06:17.264Z,71.66
2023-04-01T09:07:48.980Z,71.33
2023-04-01T09:09:39.652Z,70.91
2023-04-01T09:11:18.377Z,71.12
2023-04-01T09:13:27.430Z,71.20
2023-04-01T09:18:10.219Z,70.31
2023-04-01T09:19:53.106Z,70.09
2023-04-01T09:21:48.849Z,69.84
2023-04-01T09:23:37.298Z,69.53
2023-04-01T09:25:20.036Z,69.19
2023-04-01T09:27:11.891Z,68.85
2023-04-01T09:28:47.677Z,68.31
2023-04-01T09:32:44.892Z,68.35
2023-04-01T09:34:34.366Z,67.83
2023-04-01T09:36:09.100Z,66.46
2023-04-01T09:37:38.700Z,65.78
2023-04-01T09:39:28.630Z,65.93
2023-04-01T09:41:08.553Z,66.06
2023-04-01T09:43:21.236Z,63.84
2023-04-01T09:44:55.960Z,63.32
2023-04-01T09:46:56.918Z,62.73
2023-04-01T09:48:52.981Z,62.37
2023-04-01T09:50:37.933Z,58.45
2023-04-01T09:52:17.801Z,57.04
2023-04-01T09:56:50.322Z,56.31
2023-04-01T09:59:34.871Z,55.00
2023-04-01T10:01:53.940Z,52.32
2023-04-01T10:04:06.254Z,48.69
2023-04-01T10:06:03.375Z,50.03
2023-04-01T10:08:07.487Z,50.66
2023-04-01T10:10:10.259Z,50.96
2023-04-01T10:12:13.701Z,50.67
2023-04-01T10:14:04.907Z,50.92
2023-04-01T10:15:49.396Z,51.35
2023-04-01T10:17:45.710Z,52.29
2023-04-01T10:20:08.800Z,52.97
2023-04-01T10:21:53.914Z,54.47
2023-04-01T10:23:33.304Z,54.42
2023-04-01T10:25:35.009Z,54.88
2023-04-01T10:27:29.273Z,55.60
2023-04-01T10:29:25.678Z,55.61
2023-04-01T10:31:30.558Z,56.47
2023-04-01T10:33:35.935Z,56.46
2023-04-01T10:35:57.931Z,58.57
2023-04-01T10:37:54.546Z,57.85
2023-04-01T10:45:24.133Z,62.03
2023-04-01T10:47:11.699Z,62.46
2023-04-01T10:49:22.667Z,63.25
2023-04-01T10:51:17.272Z,63.97
2023-04-01T10:53:32.603Z,64.10
2023-04-01T10:55:36.952Z,64.00
2023-04-01T10:57:51.561Z,64.94
2023-04-01T11:00:24.083Z,65.27
2023-04-01T11:02:38.245Z,65.67
2023-04-01T11:05:12.270Z,66.41
2023-04-01T11:08:05.378Z,67.03
2023-04-01T11:18:59.546Z,66.83
2023-04-01T11:21:16.981Z,66.69
2023-04-01T11:23:23.106Z,65.82
2023-04-01T11:25:34.479Z,65.99
2023-04-01T11:27:57.777Z,65.84
2023-04-01T11:33:35.398Z,66.91
2023-04-01T11:39:06.654Z,67.04
2023-04-01T11:41:54.521Z,67.20
2023-04-01T14:03:17.388Z,72.06
2023-04-01T14:05:41.860Z,73.02
2023-04-01T14:07:32.781Z,73.55
2023-04-01T14:09:29.928Z,73.27
2023-04-01T14:11:00.938Z,73.30
2023-04-01T14:12:32.390Z,72.84
2023-04-01T14:14:06.920Z,72.63
2023-04-01T14:16:02.801Z,73.24
2023-04-01T14:17:47.575Z,73.17
2023-04-01T14:30:06.879Z,74.43
2023-04-01T14:32:22.727Z,74.54
2023-04-01T14:33:55.058Z,74.41
2023-04-01T14:36:16.463Z,74.00
2023-04-01T14:38:09.885Z,74.16
2023-04-01T14:39:59.703Z,73.98
2023-04-01T14:41:39.012Z,73.90
2023-04-01T14:43:23.383Z,73.46
2023-04-01T14:45:08.722Z,73.67
2023-04-01T14:47:18.892Z,73.59
2023-04-01T14:48:53.790Z,73.91
2023-04-01T14:50:19.072Z,73.67
2023-04-01T14:51:42.660Z,73.63
2023-04-01T14:53:20.632Z,73.51
2023-04-01T14:54:46.345Z,73.69
2023-04-01T14:56:45.916Z,73.80
2023-04-01T14:58:21.272Z,74.03
2023-04-01T14:59:53.664Z,73.85
2023-04-01T15:03:18.659Z,73.69
2023-04-01T15:04:57.170Z,73.65
2023-04-01T15:06:43.043Z,73.69
2023-04-01T15:08:19.879Z,73.66
2023-04-01T15:09:51.021Z,73.59
2023-04-01T15:11:36.310Z,73.46
2023-04-01T15:13:15.141Z,73.69
2023-04-01T15:14:51.504Z,73.92
2023-04-01T15:16:26.474Z,74.24
2023-04-01T15:18:07.953Z,74.51
2023-04-01T15:19:44.015Z,74.31
2023-04-01T15:21:38.243Z,74.59
2023-04-01T15:23:17.874Z,74.77
2023-04-01T15:24:49.318Z,75.01
2023-04-01T15:26:22.597Z,75.07
2023-04-01T15:27:52.350Z,75.19
2023-04-01T15:29:35.440Z,75.44
2023-04-01T15:31:07.503Z,75.42
2023-04-01T15:32:46.268Z,75.65
2023-04-01T15:34:39.465Z,75.55
2023-04-01T15:36:10.634Z,75.53
2023-04-01T15:37:46.520Z,75.60
2023-04-01T15:39:16.569Z,75.87
2023-04-01T15:40:48.371Z,75.69
2023-04-01T15:42:26.323Z,75.86
2023-04-01T15:43:50.882Z,75.40
2023-04-01T15:45:25.567Z,75.39
2023-04-01T15:46:50.167Z,75.32
2023-04-01T15:48:43.425Z,75.42
2023-04-01T15:50:27.495Z,75.61
2023-04-01T15:52:05.596Z,75.32
2023-04-01T15:53:39.793Z,75.51
2023-04-01T15:55:23.200Z,75.67
2023-04-01T15:56:57.152Z,75.54
2023-04-01T15:58:41.232Z,75.55
2023-04-01T16:00:21.676Z,75.80
2023-04-01T16:01:51.467Z,75.70
2023-04-01T16:03:27.009Z,75.75
2023-04-01T16:05:00.949Z,75.81
2023-04-01T16:06:42.568Z,76.05
2023-04-01T16:08:20.325Z,76.37
2023-04-01T16:09:58.945Z,76.01
2023-04-01T16:11:31.805Z,76.20
2023-04-01T16:13:00.858Z,76.53
2023-04-01T16:14:34.489Z,76.39
2023-04-01T16:16:03.685Z,76.09
2023-04-01T16:17:58.181Z,76.21
2023-04-01T16:19:39.844Z,76.33
2023-04-01T16:21:07.221Z,76.28
2023-04-01T16:22:35.216Z,75.98
2023-04-01T16:24:06.420Z,75.92
2023-04-01T16:25:36.598Z,75.67
2023-04-01T16:27:05.361Z,75.93
2023-04-01T16:28:33.619Z,75.85
2023-04-01T16:29:58.875Z,75.89
2023-04-01T16:31:35.171Z,75.90
2023-04-01T16:33:10.069Z,76.08
2023-04-01T16:34:38.442Z,76.20
2023-04-01T16:36:31.219Z,76.30
2023-04-01T16:38:07.756Z,76.64
2023-04-01T16:39:42.223Z,76.65
2023-04-01T16:41:20.728Z,76.64
2023-04-01T16:42:50.656Z,76.62
2023-04-01T16:44:20.880Z,76.52
2023-04-01T16:45:49.591Z,76.33
2023-04-01T16:47:18.392Z,76.52
2023-04-01T16:48:57.439Z,76.83
2023-04-01T16:50:24.768Z,77.03
2023-04-01T16:51:51.248Z,76.99
2023-04-01T16:53:22.048Z,77.05
2023-04-01T16:54:50.423Z,77.16
2023-04-01T16:56:19.447Z,77.51
2023-04-01T16:57:51.314Z,77.64
2023-04-01T16:59:24.594Z,77.62
2023-04-01T17:00:54.128Z,77.44
2023-04-01T17:02:19.570Z,77.55
2023-04-01T17:03:47.722Z,77.62
2023-04-01T17:05:14.596Z,77.62
2023-04-01T17:06:46.692Z,77.51
2023-04-01T17:08:19.854Z,77.64
2023-04-01T17:10:03.087Z,77.77
2023-04-01T17:11:31.524Z,77.81
2023-04-01T17:13:06.436Z,77.72
2023-04-01T17:14:35.287Z,77.76
2023-04-01T17:16:10.219Z,77.61
2023-04-01T17:17:54.427Z,77.79
2023-04-01T17:19:35.437Z,77.84
2023-04-01T17:21:02.545Z,77.96
2023-04-01T17:22:34.473Z,78.00
2023-04-01T17:24:11.962Z,77.97
2023-04-01T17:25:48.581Z,78.09
2023-04-01T17:27:26.006Z,78.15
2023-04-01T17:28:53.064Z,78.24
2023-04-01T17:30:41.972Z,78.52
2023-04-01T17:32:13.929Z,78.61
2023-04-01T17:33:51.156Z,78.73
2023-04-01T17:35:19.768Z,78.57
2023-04-01T17:37:08.775Z,78.44
2023-04-01T17:38:56.519Z,78.58
2023-04-01T17:40:31.519Z,78.73
2023-04-01T17:42:09.463Z,78.58
2023-04-01T17:43:42.815Z,78.55
2023-04-01T17:45:12.926Z,78.61
2023-04-01T17:46:43.315Z,78.61
2023-04-01T17:48:14.636Z,78.72
2023-04-01T17:49:42.142Z,79.10
2023-04-01T17:51:23.288Z,78.80
2023-04-01T17:52:50.960Z,78.92
2023-04-01T17:54:29.692Z,78.83
2023-04-01T17:56:04.009Z,78.82
2023-04-01T17:57:48.007Z,78.87
2023-04-01T17:59:29.120Z,78.74
2023-04-01T18:01:31.026Z,78.76
2023-04-01T18:03:12.223Z,78.80
2023-04-01T18:05:17.640Z,78.77
2023-04-01T18:07:38.585Z,78.93
2023-04-01T18:10:11.371Z,78.60
2023-04-01T18:12:06.208Z,78.60
2023-04-01T18:14:11.536Z,78.60
2023-04-01T18:16:17.646Z,78.35
2023-04-01T18:24:02.912Z,78.85
2023-04-01T18:26:13.535Z,78.73
2023-04-01T18:28:21.457Z,78.79
2023-04-01T18:40:45.892Z,79.29
2023-04-01T18:43:23.061Z,79.33
2023-04-01T18:44:58.440Z,79.31
2023-04-01T18:46:35.576Z,79.28
2023-04-01T18:48:06.358Z,79.14
2023-04-01T18:49:36.589Z,79.08
2023-04-01T18:51:27.878Z,79.04
2023-04-01T18:53:00.630Z,79.16
2023-04-01T18:54:38.545Z,79.20
2023-04-01T18:56:03.770Z,79.02
2023-04-01T18:57:26.117Z,78.76
2023-04-01T18:58:52.982Z,78.56
2023-04-01T19:00:26.022Z,78.54
2023-04-01T19:02:16.152Z,78.44
2023-04-01T19:03:45.826Z,78.27
2023-04-01T19:05:24.126Z,78.46
2023-04-01T19:06:53.140Z,78.36
2023-04-01T19:08:35.251Z,78.38
2023-04-01T19:10:22.216Z,78.19
2023-04-01T19:11:52.560Z,78.19
2023-04-01T19:13:34.444Z,77.99
2023-04-01T19:15:32.053Z,78.10
2023-04-01T19:17:12.972Z,78.17
2023-04-01T19:19:25.885Z,78.48
2023-04-01T19:20:59.107Z,78.36
2023-04-01T19:22:45.790Z,78.24
2023-04-01T19:24:24.671Z,77.96
2023-04-01T19:25:52.859Z,77.90
2023-04-01T19:27:34.802Z,77.76
2023-04-01T19:29:05.256Z,77.95
2023-04-01T19:30:38.667Z,77.60
2023-04-01T19:32:17.395Z,77.70
2023-04-01T19:35:47.995Z,77.88
2023-04-01T19:37:23.443Z,77.82
2023-04-01T19:39:01.858Z,77.69
2023-04-01T19:40:44.982Z,77.75
2023-04-01T19:42:17.562Z,77.79
2023-04-01T19:43:57.721Z,78.12
2023-04-01T19:45:32.687Z,78.20
2023-04-01T19:47:03.251Z,78.28
2023-04-01T19:48:54.163Z,78.14
2023-04-01T19:50:29.788Z,78.34
2023-04-01T19:51:58.367Z,78.70
2023-04-01T19:53:28.480Z,78.94
2023-04-01T19:55:01.423Z,79.00
2023-04-01T19:56:27.476Z,79.17
2023-04-01T19:57:58.736Z,79.44
2023-04-01T19:59:34.412Z,79.57
2023-04-01T20:01:00.701Z,79.81
2023-04-01T20:02:50.393Z,79.78
2023-04-01T20:04:23.494Z,79.82
2023-04-01T20:05:59.485Z,79.75
2023-04-01T20:07:27.141Z,79.83
2023-04-01T20:08:59.612Z,79.82
2023-04-01T20:10:28.740Z,80.16
2023-04-01T20:12:36.088Z,80.16
2023-04-01T20:14:10.279Z,80.29
2023-04-01T20:15:36.914Z,80.60
2023-04-01T20:17:22.452Z,80.46
2023-04-01T20:18:54.747Z,80.47
2023-04-01T20:20:22.160Z,80.65
2023-04-01T20:21:49.264Z,80.53
2023-04-01T20:23:37.697Z,80.65
2023-04-01T20:25:04.285Z,80.90
2023-04-01T20:26:32.247Z,81.12
2023-04-01T20:28:01.505Z,81.04
2023-04-01T20:29:52.969Z,81.25
2023-04-01T20:31:28.383Z,81.19
2023-04-01T20:33:10.169Z,81.24
2023-04-01T20:35:07.298Z,81.19
2023-04-01T20:36:44.866Z,81.25
2023-04-01T20:38:27.995Z,81.28
2023-04-01T20:40:34.982Z,81.33
2023-04-01T20:42:17.099Z,81.29
2023-04-01T20:44:10.714Z,81.23
2023-04-01T20:46:05.097Z,81.33
2023-04-01T20:47:57.156Z,81.49
2023-04-01T20:49:48.400Z,81.58
2023-04-01T20:51:19.769Z,81.66
2023-04-01T20:52:57.713Z,81.97
2023-04-01T20:54:50.663Z,81.88
2023-04-01T20:56:37.259Z,81.99
2023-04-01T20:58:12.445Z,82.12
2023-04-01T21:00:16.680Z,81.94
2023-04-01T21:01:57.454Z,81.74
2023-04-01T21:03:36.904Z,81.86
2023-04-01T21:05:35.000Z,81.92
2023-04-01T21:07:17.929Z,81.99
2023-04-01T21:08:57.810Z,81.70
2023-04-01T21:10:39.321Z,81.81
2023-04-01T21:12:18.663Z,81.75
2023-04-01T21:13:59.393Z,82.17
2023-04-01T21:15:43.136Z,81.97
2023-04-01T21:17:17.775Z,81.84
2023-04-01T21:18:59.107Z,81.82
2023-04-01T21:20:48.485Z,81.59
2023-04-01T21:22:44.970Z,81.77
2023-04-01T21:24:38.303Z,81.69
2023-04-01T21:26:18.182Z,81.77
2023-04-01T21:27:54.588Z,81.80
2023-04-01T21:29:38.498Z,81.46
2023-04-01T21:33:06.834Z,81.77
2023-04-01T21:34:54.796Z,81.82
2023-04-01T21:36:53.064Z,81.67
2023-04-01T21:38:36.385Z,81.62
2023-04-01T21:40:36.084Z,81.51
2023-04-01T21:42:14.094Z,81.53
2023-04-01T21:44:01.698Z,81.28
2023-04-01T21:45:40.309Z,81.11
2023-04-01T21:47:38.018Z,81.12
2023-04-01T21:49:24.698Z,81.10
2023-04-01T21:51:01.318Z,81.07
2023-04-01T21:52:57.058Z,80.96
2023-04-01T21:54:53.349Z,80.88
2023-04-01T21:56:58.803Z,80.93
2023-04-01T21:58:55.321Z,80.91
2023-04-01T22:00:28.290Z,80.87
2023-04-01T22:02:11.789Z,80.92
2023-04-01T22:04:03.787Z,80.90
2023-04-01T22:05:32.914Z,81.16
2023-04-01T22:06:59.479Z,80.78
2023-04-01T22:21:30.855Z,81.07
2023-04-01T22:25:56.489Z,81.20
2023-04-01T22:27:27.679Z,81.31
2023-04-01T22:29:00.817Z,81.10
2023-04-01T22:30:30.754Z,81.14
2023-04-01T22:31:57.647Z,81.19
2023-04-01T22:33:33.281Z,81.04
2023-04-01T22:35:05.387Z,81.13
2023-04-01T22:36:37.281Z,81.02
2023-04-01T22:38:12.920Z,80.82
2023-04-01T22:39:52.189Z,80.87
2023-04-01T22:41:22.261Z,81.05
2023-04-01T22:42:54.376Z,80.92
2023-04-01T22:44:29.132Z,81.07
2023-04-01T22:46:18.305Z,81.09
2023-04-01T22:47:48.647Z,81.04
2023-04-01T22:49:17.685Z,80.84
2023-04-01T22:50:44.771Z,81.08
2023-04-01T22:52:16.165Z,80.92
2023-04-01T22:53:54.586Z,80.87
2023-04-01T22:55:22.438Z,80.96
2023-04-01T22:56:49.919Z,81.11
2023-04-01T22:58:16.947Z,81.03
2023-04-01T22:59:43.639Z,80.80
2023-04-01T23:01:10.304Z,80.77
2023-04-01T23:02:36.497Z,81.01
2023-04-01T23:04:01.401Z,80.65
2023-04-01T23:05:24.465Z,80.41
2023-04-01T23:06:52.232Z,80.33
2023-04-01T23:08:47.700Z,80.37
2023-04-01T23:10:22.954Z,80.57
2023-04-01T23:11:54.605Z,80.45
2023-04-01T23:13:22.027Z,80.57
2023-04-01T23:14:48.971Z,80.59
2023-04-01T23:16:12.501Z,80.36
2023-04-01T23:17:49.853Z,80.29
2023-04-01T23:19:20.841Z,80.17
2023-04-01T23:21:03.404Z,80.15
2023-04-01T23:22:32.188Z,80.09
2023-04-01T23:24:07.138Z,79.83
2023-04-01T23:25:43.238Z,79.89
2023-04-01T23:27:14.190Z,79.85
2023-04-01T23:28:49.580Z,79.77
2023-04-01T23:30:50.633Z,79.61
2023-04-01T23:32:19.296Z,79.64
2023-04-01T23:33:40.516Z,79.46
2023-04-01T23:35:03.032Z,79.48
2023-04-01T23:36:24.809Z,79.26
2023-04-01T23:37:48.012Z,79.12
2023-04-01T23:39:22.534Z,79.14
2023-04-01T23:40:46.608Z,79.08
2023-04-01T23:42:19.314Z,78.94
2023-04-01T23:43:44.173Z,79.10
2023-04-01T23:45:14.399Z,78.99
2023-04-01T23:46:36.714Z,78.92
2023-04-01T23:47:59.532Z,78.88
2023-04-01T23:49:23.161Z,78.97
2023-04-01T23:50:47.077Z,78.98
2023-04-01T23:52:16.513Z,78.57
2023-04-01T23:53:45.262Z,78.54
2023-04-01T23:55:17.562Z,78.31
2023-04-01T23:56:42.481Z,78.69
2023-04-01T23:58:24.312Z,78.66
2023-04-01T23:59:46.420Z,78.73
